Time;durP1;ratioP1;P1;durP2;ratioP2;P2;SDS_P1;SDS_P2;PMS_P1;PMS_P2;Temp;Humidity;BMP_temperature;BMP_pressure;BME280_temperature;BME280_humidity;BME280_pressure;Samples;Min_cycle;Max_cycle;Signal;HPM_P1;HPM_P2
2023/10/26 00:00:33;;;;;;;13.68;12.48;;;;;;;12.39;100.00;99547.72;5336003;27;20038;-72
2023/10/26 00:03:05;;;;;;;12.68;11.57;;;;;;;12.41;100.00;99548.34;5333840;28;20070;-72
2023/10/26 00:05:37;;;;;;;14.32;12.85;;;;;;;12.44;100.00;99562.94;5336314;28;20057;-72
2023/10/26 00:08:08;;;;;;;13.98;12.68;;;;;;;12.42;100.00;99560.47;5334391;28;20019;-72
2023/10/26 00:10:40;;;;;;;13.90;12.63;;;;;;;12.39;100.00;99568.72;5336493;27;20031;-72
2023/10/26 00:13:12;;;;;;;13.07;11.98;;;;;;;12.45;100.00;99572.47;5335860;28;20043;-72
2023/10/26 00:15:44;;;;;;;13.93;12.63;;;;;;;12.41;100.00;99577.25;5328371;28;20123;-72
2023/10/26 00:18:16;;;;;;;13.60;12.40;;;;;;;12.43;100.00;99577.09;5334911;28;20031;-72
2023/10/26 00:20:49;;;;;;;14.68;13.20;;;;;;;12.36;100.00;99571.69;5336430;27;20042;-72
2023/10/26 00:23:20;;;;;;;13.80;12.50;;;;;;;12.40;100.00;99573.00;5337226;28;20034;-72
2023/10/26 00:25:53;;;;;;;13.73;12.55;;;;;;;12.30;100.00;99575.00;5334552;28;20027;-72
2023/10/26 00:28:25;;;;;;;13.68;12.48;;;;;;;12.30;100.00;99582.88;5336131;28;20035;-72
2023/10/26 00:30:57;;;;;;;13.07;11.88;;;;;;;12.29;100.00;99584.69;5342244;27;20037;-72
2023/10/26 00:33:29;;;;;;;13.27;11.98;;;;;;;12.29;100.00;99589.13;5339817;27;20499;-72
2023/10/26 00:36:01;;;;;;;13.07;11.98;;;;;;;12.33;100.00;99593.06;5338592;27;20387;-72
2023/10/26 00:38:33;;;;;;;13.77;12.30;;;;;;;12.29;100.00;99584.69;5340213;27;20050;-72
2023/10/26 00:41:05;;;;;;;12.57;11.30;;;;;;;12.23;100.00;99581.94;5334536;27;20035;-72
2023/10/26 00:43:36;;;;;;;13.50;12.20;;;;;;;12.30;100.00;99593.38;5335427;27;20035;-72
2023/10/26 00:46:10;;;;;;;13.18;11.98;;;;;;;12.31;100.00;99600.25;5339758;27;20038;-72
2023/10/26 00:48:42;;;;;;;12.75;11.63;;;;;;;12.30;100.00;99599.44;5338304;27;20043;-72
2023/10/26 00:51:14;;;;;;;13.23;11.98;;;;;;;12.31;100.00;99608.16;5341121;27;20069;-72
2023/10/26 00:53:46;;;;;;;12.70;11.40;;;;;;;12.29;100.00;99605.69;5341033;27;20037;-72
2023/10/26 00:56:21;;;;;;;12.60;11.32;;;;;;;12.32;100.00;99610.63;5339819;27;20035;-72
2023/10/26 00:58:54;;;;;;;11.82;10.77;;;;;;;12.28;100.00;99604.06;5339563;27;20031;-72
2023/10/26 01:01:26;;;;;;;12.30;11.20;;;;;;;12.28;100.00;99611.13;5340666;27;21272;-72
2023/10/26 01:04:00;;;;;;;12.20;11.20;;;;;;;12.28;100.00;99611.94;5339651;27;20480;-72
2023/10/26 01:06:32;;;;;;;11.93;10.77;;;;;;;12.31;100.00;99613.41;5340390;27;20401;-72
2023/10/26 01:09:04;;;;;;;11.60;10.50;;;;;;;12.33;100.00;99612.25;5330260;27;20019;-72
2023/10/26 01:11:37;;;;;;;11.35;10.23;;;;;;;12.31;100.00;99616.03;5340048;27;20392;-72
2023/10/26 01:14:09;;;;;;;12.30;10.48;;;;;;;12.29;100.00;99605.69;5338398;27;20031;-72
2023/10/26 01:16:41;;;;;;;11.95;10.85;;;;;;;12.31;100.00;99613.41;5338549;27;20019;-72
2023/10/26 01:19:13;;;;;;;12.07;11.00;;;;;;;12.30;100.00;99609.97;5339426;27;20042;-72
2023/10/26 01:21:50;;;;;;;12.30;11.10;;;;;;;12.40;100.00;99615.00;5338910;27;20038;-72
2023/10/26 01:24:22;;;;;;;12.20;11.10;;;;;;;12.27;100.00;99606.84;5339514;27;20389;-72
2023/10/26 01:26:54;;;;;;;12.27;11.05;;;;;;;12.22;100.00;99607.38;5338758;27;20031;-72
2023/10/26 01:29:25;;;;;;;12.27;11.18;;;;;;;12.20;100.00;99613.78;5337913;27;20023;-72
2023/10/26 01:31:57;;;;;;;11.70;10.45;;;;;;;12.18;100.00;99609.53;5339657;27;20036;-72
2023/10/26 01:34:32;;;;;;;12.50;11.25;;;;;;;12.14;100.00;99616.09;5336613;27;20104;-72
2023/10/26 01:37:04;;;;;;;11.65;10.63;;;;;;;12.09;100.00;99605.31;5319602;27;20036;-72
2023/10/26 01:39:36;;;;;;;11.15;10.15;;;;;;;12.13;100.00;99609.22;5339449;27;20034;-72
2023/10/26 01:42:10;;;;;;;11.60;10.57;;;;;;;12.05;100.00;99606.63;5339010;27;20037;-72
2023/10/26 01:44:43;;;;;;;12.32;11.05;;;;;;;12.05;100.00;99616.31;5338250;27;20023;-72
2023/10/26 01:47:17;;;;;;;11.90;10.82;;;;;;;11.98;100.00;99603.03;5338348;27;20051;-72
2023/10/26 01:49:49;;;;;;;11.45;10.40;;;;;;;11.99;100.00;99617.81;5340129;27;20035;-72
2023/10/26 01:52:20;;;;;;;11.82;10.43;;;;;;;11.98;100.00;99613.53;5336486;27;20039;-72
2023/10/26 01:54:52;;;;;;;12.52;11.32;;;;;;;11.97;100.00;99616.31;5338729;27;20491;-72
2023/10/26 01:57:24;;;;;;;11.88;10.68;;;;;;;11.97;100.00;99617.16;5338483;27;20050;-72
2023/10/26 01:59:56;;;;;;;12.07;10.82;;;;;;;11.97;100.00;99624.19;5339879;27;20033;-72
2023/10/26 02:02:28;;;;;;;11.90;10.80;;;;;;;11.91;100.00;99621.28;5334223;27;20039;-73
2023/10/26 02:05:00;;;;;;;11.63;10.52;;;;;;;11.91;100.00;99615.22;5331711;27;20396;-72
2023/10/26 02:07:33;;;;;;;11.93;10.82;;;;;;;11.88;100.00;99616.34;5337682;27;20027;-72
2023/10/26 02:10:05;;;;;;;12.98;11.52;;;;;;;11.91;100.00;99615.22;5335426;27;20042;-72
2023/10/26 02:12:37;;;;;;;11.32;10.25;;;;;;;11.86;100.00;99602.59;5318560;27;20043;-72
2023/10/26 02:15:11;;;;;;;11.68;10.57;;;;;;;11.78;100.00;99599.13;5336282;27;20030;-72
2023/10/26 02:17:43;;;;;;;12.95;11.65;;;;;;;11.70;100.00;99602.59;5337759;27;20031;-72
2023/10/26 02:20:15;;;;;;;11.77;10.70;;;;;;;11.68;100.00;99600.16;5334998;27;20041;-72
2023/10/26 02:22:47;;;;;;;11.32;10.15;;;;;;;11.59;100.00;99603.78;5337015;27;20027;-72
2023/10/26 02:25:20;;;;;;;11.05;10.05;;;;;;;11.58;100.00;99607.38;5338724;27;20037;-72
2023/10/26 02:27:52;;;;;;;12.23;10.88;;;;;;;11.54;100.00;99602.63;5336550;27;20027;-72
2023/10/26 02:30:24;;;;;;;11.68;10.57;;;;;;;11.49;100.00;99600.50;5329509;27;20031;-72
2023/10/26 02:32:55;;;;;;;11.57;10.57;;;;;;;11.50;100.00;99596.09;5338464;27;20039;-72
2023/10/26 02:35:27;;;;;;;11.13;10.13;;;;;;;11.51;100.00;99597.72;5337004;27;20465;-73
2023/10/26 02:37:59;;;;;;;12.07;10.88;;;;;;;11.48;100.00;99593.63;5338347;27;20508;-72
2023/10/26 02:40:32;;;;;;;11.35;10.35;;;;;;;11.48;100.00;99592.78;5337678;27;20377;-72
2023/10/26 02:43:04;;;;;;;;;;;;;;;12.32;100.00;99597.50;5336955;27;20031;-72
2023/10/26 02:45:36;;;;;;;11.70;10.60;;;;;;;11.53;100.00;99598.38;5338404;27;20443;-72
2023/10/26 02:48:08;;;;;;;10.80;9.80;;;;;;;11.47;100.00;99599.03;5337521;27;20031;-72
2023/10/26 02:50:40;;;;;;;11.80;10.75;;;;;;;11.44;100.00;99597.59;5337567;27;20031;-72
2023/10/26 02:53:12;;;;;;;12.52;11.32;;;;;;;11.44;100.00;99602.81;5335333;27;20688;-72
2023/10/26 02:55:44;;;;;;;12.48;11.27;;;;;;;11.43;100.00;99603.78;5339314;27;20407;-72
2023/10/26 02:58:16;;;;;;;13.27;11.98;;;;;;;11.41;100.00;99603.16;5329197;27;20032;-72
2023/10/26 03:00:48;;;;;;;12.27;11.07;;;;;;;11.30;100.00;99591.19;5336590;27;20130;-72
2023/10/26 03:03:21;;;;;;;11.88;10.77;;;;;;;11.30;100.00;99596.44;5337403;27;20038;-72
2023/10/26 03:05:53;;;;;;;12.48;11.27;;;;;;;11.29;100.00;99600.06;5338282;27;20373;-72
2023/10/26 03:08:24;;;;;;;11.93;10.82;;;;;;;11.25;100.00;99598.75;5311266;27;20042;-72
2023/10/26 03:10:56;;;;;;;10.52;9.55;;;;;;;11.15;100.00;99590.22;5336804;27;20039;-72
2023/10/26 03:13:28;;;;;;;12.00;10.90;;;;;;;11.11;100.00;99586.28;5337915;27;20051;-72
2023/10/26 03:16:00;;;;;;;11.60;10.50;;;;;;;11.13;100.00;99595.63;5338089;27;20469;-72
2023/10/26 03:18:32;;;;;;;12.00;10.80;;;;;;;11.07;100.00;99598.91;5337412;27;20049;-72
2023/10/26 03:21:04;;;;;;;11.88;10.68;;;;;;;11.00;100.00;99600.53;5337651;27;20027;-72
2023/10/26 03:23:36;;;;;;;11.90;10.80;;;;;;;11.02;100.00;99603.81;5329469;27;20024;-72
2023/10/26 03:26:10;;;;;;;10.65;9.55;;;;;;;10.94;100.00;99604.63;5337327;27;20030;-72
2023/10/26 03:28:41;;;;;;;11.57;10.48;;;;;;;10.92;100.00;99609.22;5334903;27;20031;-72
2023/10/26 03:31:13;;;;;;;11.20;10.20;;;;;;;10.87;100.00;99600.19;5336777;27;20038;-72
2023/10/26 03:33:45;;;;;;;11.05;10.00;;;;;;;10.82;100.00;99603.31;5336299;27;20518;-72
2023/10/26 03:36:19;;;;;;;11.70;10.50;;;;;;;10.79;100.00;99602.81;5335739;27;20038;-72
2023/10/26 03:38:51;;;;;;;11.07;10.07;;;;;;;10.76;100.00;99593.50;5336940;27;20034;-72
2023/10/26 03:41:23;;;;;;;12.48;10.50;;;;;;;10.78;100.00;99588.06;5336846;27;20114;-72
2023/10/26 03:43:55;;;;;;;13.75;12.35;;;;;;;10.84;100.00;99592.69;5334898;27;20027;-72
2023/10/26 03:46:27;;;;;;;13.95;12.52;;;;;;;10.87;100.00;99592.31;5336080;27;20040;-72
2023/10/26 03:48:59;;;;;;;17.42;14.48;;;;;;;10.91;100.00;99589.25;5337406;27;20031;-72
2023/10/26 03:51:31;;;;;;;23.45;15.75;;;;;;;10.95;100.00;99585.31;5327257;27;20492;-72
2023/10/26 03:54:03;;;;;;;17.95;15.63;;;;;;;10.95;100.00;99571.41;5336056;27;20042;-72
2023/10/26 03:56:35;;;;;;;19.45;14.75;;;;;;;10.96;100.00;99563.34;5336853;27;20384;-72
2023/10/26 03:59:07;;;;;;;39.85;16.23;;;;;;;10.99;100.00;99566.66;5335364;27;20030;-72
2023/10/26 04:01:38;;;;;;;56.90;16.58;;;;;;;11.01;100.00;99575.16;5336572;28;20041;-72
2023/10/26 04:04:10;;;;;;;27.67;14.95;;;;;;;11.00;100.00;99569.09;5334679;27;20023;-72
2023/10/26 04:06:42;;;;;;;59.88;15.98;;;;;;;11.01;100.00;99569.91;5337407;28;20023;-72
2023/10/26 04:09:14;;;;;;;62.47;16.90;;;;;;;11.02;100.00;99564.50;5336308;28;20476;-72
2023/10/26 04:11:46;;;;;;;104.70;17.48;;;;;;;11.01;100.00;99564.66;5336270;28;20395;-72
2023/10/26 04:14:18;;;;;;;184.50;19.35;;;;;;;10.98;100.00;99560.56;5333949;28;20035;-72
2023/10/26 04:16:50;;;;;;;179.77;20.33;;;;;;;10.95;100.00;99550.44;5330867;28;20035;-72
2023/10/26 04:19:22;;;;;;;93.10;17.05;;;;;;;10.96;100.00;99554.69;5315887;28;20950;-72
2023/10/26 04:21:53;;;;;;;62.92;14.95;;;;;;;11.02;100.00;99561.06;5335147;28;20502;-72
2023/10/26 04:24:25;;;;;;;107.82;16.52;;;;;;;10.98;100.00;99565.81;5335194;28;20414;-72
2023/10/26 04:26:57;;;;;;;97.53;16.23;;;;;;;10.96;100.00;99571.22;5336292;28;20035;-72
2023/10/26 04:29:29;;;;;;;134.25;18.70;;;;;;;10.91;100.00;99565.66;5336393;27;20023;-72
2023/10/26 04:32:02;;;;;;;92.22;15.75;;;;;;;10.93;100.00;99568.91;5336570;28;20031;-72
2023/10/26 04:34:34;;;;;;;83.33;16.60;;;;;;;10.97;100.00;99574.66;5335412;28;20027;-72
2023/10/26 04:37:06;;;;;;;81.88;15.48;;;;;;;10.89;100.00;99572.03;5337119;28;20303;-72
2023/10/26 04:39:41;;;;;;;74.68;14.60;;;;;;;10.87;100.00;99563.50;5336127;27;20311;-72
2023/10/26 04:42:13;;;;;;;105.93;15.90;;;;;;;10.78;100.00;99567.94;5336948;28;20023;-72
2023/10/26 04:44:45;;;;;;;102.25;15.57;;;;;;;10.79;100.00;99566.13;5332655;28;20533;-72
2023/10/26 04:47:17;;;;;;;72.57;14.30;;;;;;;10.80;100.00;99575.66;5330357;28;20050;-72
2023/10/26 04:49:49;;;;;;;88.18;15.95;;;;;;;10.71;100.00;99580.03;5334914;27;20031;-72
2023/10/26 04:52:21;;;;;;;48.83;13.68;;;;;;;10.73;100.00;99577.28;5335879;28;20070;-72
2023/10/26 04:54:53;;;;;;;54.13;13.85;;;;;;;10.71;100.00;99564.31;5336189;28;20031;-72
2023/10/26 04:57:25;;;;;;;58.15;12.57;;;;;;;10.74;100.00;99568.44;5335988;28;20682;-72
2023/10/26 04:59:57;;;;;;;74.68;12.93;;;;;;;10.67;100.00;99560.38;5334579;27;20067;-72
2023/10/26 05:02:29;;;;;;;102.20;12.60;;;;;;;10.66;100.00;99569.22;5334503;28;20034;-72
2023/10/26 05:05:01;;;;;;;105.55;12.85;;;;;;;10.62;100.00;99567.94;5335210;28;20019;-72
2023/10/26 05:07:33;;;;;;;58.28;11.07;;;;;;;10.62;100.00;99571.34;5330898;28;20034;-72
2023/10/26 05:10:06;;;;;;;49.83;10.60;;;;;;;10.64;100.00;99566.75;5336279;28;20347;-72
2023/10/26 05:12:38;;;;;;;56.63;11.50;;;;;;;10.66;100.00;99562.19;5334690;28;20276;-72
2023/10/26 05:15:10;;;;;;;60.67;10.60;;;;;;;10.68;100.00;99557.63;5328165;27;20039;-73
2023/10/26 05:17:42;;;;;;;66.38;11.52;;;;;;;10.58;100.00;99556.94;5337050;27;20460;-72
2023/10/26 05:20:14;;;;;;;48.47;10.52;;;;;;;10.66;100.00;99558.75;5339413;27;20414;-72
2023/10/26 05:22:46;;;;;;;62.47;11.90;;;;;;;10.65;100.00;99559.75;5338101;27;20049;-73
2023/10/26 05:25:18;;;;;;;73.93;12.55;;;;;;;10.63;100.00;99556.47;5340012;27;20480;-72
2023/10/26 05:27:50;;;;;;;115.50;13.82;;;;;;;10.58;100.00;99548.28;5337170;27;20026;-72
2023/10/26 05:30:22;;;;;;;117.45;14.07;;;;;;;10.66;100.00;99545.66;5338346;27;20037;-72
2023/10/26 05:32:55;;;;;;;87.07;13.25;;;;;;;10.62;100.00;99547.78;5338077;27;20495;-72
2023/10/26 05:35:27;;;;;;;127.15;16.35;;;;;;;10.60;100.00;99548.91;5338592;27;20031;-72
2023/10/26 05:37:58;;;;;;;87.75;14.23;;;;;;;10.54;100.00;99545.16;5338250;27;20037;-72
2023/10/26 05:40:30;;;;;;;87.03;13.90;;;;;;;10.52;100.00;99549.72;5340878;27;20027;-72
2023/10/26 05:43:03;;;;;;;48.53;11.73;;;;;;;10.55;100.00;99549.41;5330369;27;20340;-72
2023/10/26 05:45:39;;;;;;;77.10;12.80;;;;;;;10.46;100.00;99551.22;5339200;27;20030;-72
2023/10/26 05:48:11;;;;;;;90.32;13.88;;;;;;;10.43;100.00;99548.91;5339755;27;20496;-72
2023/10/26 05:50:43;;;;;;;63.90;11.68;;;;;;;10.46;100.00;99545.16;5337643;27;20031;-72
2023/10/26 05:53:15;;;;;;;58.45;12.05;;;;;;;10.39;100.00;99550.22;5340638;27;20045;-72
2023/10/26 05:55:57;;;;;;;44.90;11.82;;;;;;;10.65;100.00;99551.88;5337890;27;20291;-72
2023/10/26 05:58:29;;;;;;;59.17;11.88;;;;;;;10.41;100.00;99537.75;5335988;27;20043;-72
2023/10/26 06:01:02;;;;;;;74.47;12.13;;;;;;;10.42;100.00;99530.75;5338296;27;20025;-72
2023/10/26 06:03:34;;;;;;;55.58;11.65;;;;;;;10.41;100.00;99529.91;5342214;27;20035;-72
2023/10/26 06:06:06;;;;;;;75.55;13.13;;;;;;;10.40;100.00;99532.69;5314548;27;20035;-72
2023/10/26 06:08:38;;;;;;;71.63;12.65;;;;;;;10.39;100.00;99534.50;5326844;27;20388;-72
2023/10/26 06:11:11;;;;;;;55.17;12.13;;;;;;;10.41;100.00;99539.56;5338259;27;20033;-72
2023/10/26 06:13:43;;;;;;;81.28;12.82;;;;;;;10.47;100.00;99541.53;5340363;27;20034;-72
2023/10/26 06:16:16;;;;;;;45.00;12.10;;;;;;;10.50;100.00;99541.22;5338835;27;20038;-72
2023/10/26 06:18:47;;;;;;;49.00;12.60;;;;;;;10.53;100.00;99540.91;5335598;27;20500;-72
2023/10/26 06:21:19;;;;;;;65.70;12.43;;;;;;;10.48;100.00;99538.75;5338788;27;20030;-72
2023/10/26 06:23:51;;;;;;;104.50;14.18;;;;;;;10.49;100.00;99536.94;5339308;27;20027;-72
2023/10/26 06:26:23;;;;;;;79.20;15.07;;;;;;;10.54;100.00;99541.72;5337426;27;20023;-72
2023/10/26 06:28:56;;;;;;;136.43;18.13;;;;;;;10.54;100.00;99521.59;5338399;27;20023;-72
2023/10/26 06:31:28;;;;;;;96.10;17.00;;;;;;;10.62;100.00;99528.63;5341017;27;20023;-72
2023/10/26 06:33:59;;;;;;;112.88;17.17;;;;;;;10.57;100.00;99526.50;5332026;27;20509;-72
2023/10/26 06:36:31;;;;;;;122.40;19.00;;;;;;;10.45;100.00;99507.69;5334717;27;20041;-72
2023/10/26 06:39:03;;;;;;;86.60;15.93;;;;;;;10.56;100.00;99526.66;5338587;27;20030;-72
2023/10/26 06:41:35;;;;;;;73.63;15.52;;;;;;;10.59;100.00;99542.06;5338586;27;20039;-72
2023/10/26 06:44:07;;;;;;;93.72;17.15;;;;;;;10.61;100.00;99540.91;5337360;27;20024;-72
2023/10/26 06:46:39;;;;;;;105.32;16.88;;;;;;;10.60;100.00;99538.44;5340099;27;20125;-72
2023/10/26 06:49:12;;;;;;;77.05;16.55;;;;;;;10.62;100.00;99534.69;5319396;27;20035;-72
2023/10/26 06:51:44;;;;;;;;;;;;;;;11.39;100.00;99527.25;5338102;27;20027;-72
2023/10/26 06:54:16;;;;;;;70.70;15.40;;;;;;;10.70;100.00;99523.41;5340540;27;20377;-72
2023/10/26 06:56:47;;;;;;;60.50;14.93;;;;;;;10.73;100.00;99530.94;5333561;27;20043;-72
2023/10/26 06:59:19;;;;;;;63.38;15.55;;;;;;;10.70;100.00;99536.50;5336972;27;20028;-72
2023/10/26 07:01:51;;;;;;;45.92;15.38;;;;;;;10.68;100.00;99534.06;5326778;27;20023;-72
2023/10/26 07:04:23;;;;;;;45.60;14.38;;;;;;;10.75;100.00;99534.19;5337328;27;20031;-72
2023/10/26 07:06:55;;;;;;;49.83;14.27;;;;;;;10.82;100.00;99524.69;5338490;27;20029;-72
2023/10/26 07:09:27;;;;;;;56.97;15.02;;;;;;;10.85;100.00;99523.56;5330382;27;20023;-72
2023/10/26 07:11:59;;;;;;;50.05;15.30;;;;;;;10.84;100.00;99521.94;5337727;27;20396;-73
2023/10/26 07:14:31;;;;;;;51.85;14.77;;;;;;;10.86;100.00;99515.53;5337747;27;20026;-72
2023/10/26 07:17:03;;;;;;;42.53;13.38;;;;;;;10.87;100.00;99518.97;5330797;27;20030;-73
2023/10/26 07:19:35;;;;;;;65.68;14.07;;;;;;;10.88;100.00;99531.09;5335577;27;20034;-73
2023/10/26 07:22:07;;;;;;;76.55;13.63;;;;;;;10.86;100.00;99526.00;5335365;27;20031;-73
2023/10/26 07:24:39;;;;;;;104.00;16.77;;;;;;;10.82;100.00;99529.94;5336329;27;20035;-73
2023/10/26 07:27:11;;;;;;;92.63;14.95;;;;;;;10.82;100.00;99526.50;5335168;27;20472;-72
2023/10/26 07:29:44;;;;;;;82.70;14.68;;;;;;;10.83;100.00;99522.91;5337843;27;20526;-73
2023/10/26 07:32:15;;;;;;;78.00;14.93;;;;;;;10.82;100.00;99534.38;5335580;27;20027;-73
2023/10/26 07:34:47;;;;;;;75.93;14.35;;;;;;;10.80;100.00;99528.50;5335530;27;20131;-73
2023/10/26 07:37:19;;;;;;;71.47;14.65;;;;;;;10.79;100.00;99525.03;5336748;27;20397;-73
2023/10/26 07:39:51;;;;;;;84.95;16.00;;;;;;;10.82;100.00;99532.56;5337604;27;20031;-73
2023/10/26 07:42:23;;;;;;;41.22;12.80;;;;;;;10.90;100.00;99524.69;5336614;27;20072;-72
2023/10/26 07:44:55;;;;;;;94.75;15.98;;;;;;;10.87;100.00;99521.59;5335240;27;20035;-73
2023/10/26 07:47:27;;;;;;;116.15;15.48;;;;;;;10.85;100.00;99526.19;5337721;27;20027;-73
2023/10/26 07:49:59;;;;;;;80.80;14.15;;;;;;;10.86;100.00;99539.13;5337333;27;20035;-73
2023/10/26 07:52:31;;;;;;;63.40;14.05;;;;;;;10.91;100.00;99539.47;5318935;27;20045;-73
2023/10/26 07:55:03;;;;;;;64.18;14.93;;;;;;;10.99;100.00;99546.50;5337203;27;20031;-73
2023/10/26 07:57:35;;;;;;;83.63;15.18;;;;;;;10.92;100.00;99535.03;5337416;27;20554;-73
2023/10/26 08:00:08;;;;;;;56.97;15.00;;;;;;;10.99;100.00;99551.75;5335012;27;20035;-73
2023/10/26 08:02:40;;;;;;;62.55;14.30;;;;;;;11.06;100.00;99554.50;5335413;28;20034;-73
2023/10/26 08:05:15;;;;;;;55.33;16.25;;;;;;;11.07;100.00;99553.53;5338628;28;20028;-73
2023/10/26 08:07:47;;;;;;;28.33;14.98;;;;;;;11.14;100.00;99565.00;5335790;28;20031;-73
2023/10/26 08:10:19;;;;;;;28.52;13.25;;;;;;;11.16;100.00;99563.03;5337577;27;20031;-72
2023/10/26 08:12:53;;;;;;;43.25;15.30;;;;;;;11.15;100.00;99561.38;5334032;28;20038;-73
2023/10/26 08:15:25;;;;;;;42.80;14.55;;;;;;;11.15;100.00;99556.16;5332814;28;20035;-73
2023/10/26 08:17:57;;;;;;;41.40;14.40;;;;;;;11.24;100.00;99563.00;5336548;28;20494;-73
2023/10/26 08:20:29;;;;;;;29.63;14.55;;;;;;;11.34;100.00;99555.78;5311427;28;20043;-73
2023/10/26 08:23:04;;;;;;;34.25;13.93;;;;;;;11.42;100.00;99563.63;5331271;28;20024;-73
2023/10/26 08:25:36;;;;;;;32.72;14.80;;;;;;;11.35;100.00;99575.78;5333168;28;20384;-73
2023/10/26 08:28:08;;;;;;;43.33;16.50;;;;;;;11.33;100.00;99575.13;5338463;28;20403;-73
2023/10/26 08:30:40;;;;;;;21.00;14.43;;;;;;;11.40;100.00;99560.38;5333698;28;20033;-72
2023/10/26 08:33:11;;;;;;;42.45;16.23;;;;;;;11.28;100.00;99572.19;5336320;28;20030;-73
2023/10/26 08:35:53;;;;;;;25.63;16.75;;;;;;;11.49;100.00;99565.59;5336803;28;20029;-71
2023/10/26 08:38:25;;;;;;;29.77;15.40;;;;;;;11.39;100.00;99563.16;5336084;28;20038;-72
2023/10/26 08:40:57;;;;;;;22.70;16.10;;;;;;;11.47;100.00;99565.75;5332708;27;20038;-72
2023/10/26 08:43:30;;;;;;;26.75;16.35;;;;;;;11.45;100.00;99560.69;5335846;28;20376;-72
2023/10/26 08:46:02;;;;;;;22.35;16.90;;;;;;;11.50;100.00;99557.56;5333299;28;20034;-72
2023/10/26 08:48:38;;;;;;;27.10;17.58;;;;;;;11.51;100.00;99559.19;5335510;27;20228;-72
2023/10/26 08:51:10;;;;;;;22.27;15.95;;;;;;;11.53;100.00;99548.53;5322027;28;20044;-72
2023/10/26 08:53:43;;;;;;;24.10;16.85;;;;;;;11.67;100.00;99555.72;5318472;28;20034;-72
2023/10/26 08:56:20;;;;;;;25.38;17.35;;;;;;;11.86;100.00;99562.41;5317421;28;20044;-72
2023/10/26 08:58:57;;;;;;;21.38;16.88;;;;;;;11.88;100.00;99558.63;5318249;28;20028;-72
2023/10/26 09:01:29;;;;;;;21.98;18.15;;;;;;;11.77;100.00;99561.56;5300964;28;20066;-72
2023/10/26 09:04:11;;;;;;;19.90;17.10;;;;;;;12.00;100.00;99555.63;5320360;28;20024;-72
2023/10/26 09:06:52;;;;;;;20.30;17.48;;;;;;;11.92;100.00;99552.03;5317649;28;20028;-72
2023/10/26 09:09:24;;;;;;;23.88;17.52;;;;;;;11.84;100.00;99552.06;5333519;27;20019;-72
2023/10/26 09:12:08;;;;;;;24.13;18.08;;;;;;;12.01;100.00;99550.22;5337992;27;20027;-72
2023/10/26 09:14:40;;;;;;;22.10;18.75;;;;;;;11.88;100.00;99561.25;5333926;27;20031;-72
2023/10/26 09:17:24;;;;;;;23.10;18.63;;;;;;;12.10;100.00;99557.06;5332455;27;20038;-72
2023/10/26 09:20:00;;;;;;;20.48;17.92;;;;;;;11.95;100.00;99550.88;5319095;28;20054;-72
2023/10/26 09:22:36;;;;;;;23.15;18.60;;;;;;;12.12;100.00;99551.63;5315634;28;20039;-72
2023/10/26 09:25:10;;;;;;;23.30;19.70;;;;;;;12.14;100.00;99555.72;5318196;28;20038;-72
2023/10/26 09:27:43;;;;;;;24.02;20.08;;;;;;;12.14;100.00;99547.03;5315053;28;20027;-72
2023/10/26 09:30:31;;;;;;;23.60;20.52;;;;;;;12.28;100.00;99548.94;5320833;28;20098;-72
2023/10/26 09:33:04;;;;;;;25.40;20.70;;;;;;;12.11;100.00;99550.81;5319076;28;20364;-72
2023/10/26 09:35:36;;;;;;;22.70;19.35;;;;;;;12.18;100.00;99550.94;5318302;28;20027;-72
2023/10/26 09:38:08;;;;;;;24.63;19.65;;;;;;;12.14;100.00;99547.03;5317547;28;20032;-72
2023/10/26 09:40:40;;;;;;;22.60;20.20;;;;;;;12.01;100.00;99552.84;5313907;28;20038;-72
2023/10/26 09:43:12;;;;;;;23.80;19.95;;;;;;;12.04;100.00;99546.41;5316675;28;20252;-73
2023/10/26 09:45:44;;;;;;;21.98;19.33;;;;;;;12.03;100.00;99544.78;5334467;27;20027;-72
2023/10/26 09:48:17;;;;;;;23.90;20.73;;;;;;;12.04;100.00;99546.41;5334620;27;20068;-72
2023/10/26 09:50:49;;;;;;;23.20;20.35;;;;;;;12.08;100.00;99542.44;5339280;27;20054;-72
2023/10/26 09:53:21;;;;;;;28.20;21.98;;;;;;;12.10;100.00;99535.25;5337115;27;20416;-72
2023/10/26 09:55:53;;;;;;;24.08;20.83;;;;;;;12.11;100.00;99531.63;5333890;27;20035;-72
2023/10/26 09:58:27;;;;;;;23.95;20.17;;;;;;;12.21;100.00;99518.28;5337825;27;20050;-72
2023/10/26 10:00:59;;;;;;;24.23;21.30;;;;;;;12.22;100.00;99525.97;5338702;27;20416;-72
2023/10/26 10:03:43;;;;;;;22.25;19.42;;;;;;;12.43;100.00;99527.19;5338014;27;20042;-73
2023/10/26 10:06:53;;;;;;;24.38;19.98;;;;;;;12.53;100.00;99525.13;5339322;27;20038;-73
2023/10/26 10:09:27;;;;;;;26.58;19.42;;;;;;;12.30;100.00;99525.91;5335183;27;20499;-73
2023/10/26 10:12:09;;;;;;;20.88;18.67;;;;;;;12.43;100.00;99512.25;5333411;27;20106;-73
2023/10/26 10:14:47;;;;;;;24.35;20.25;;;;;;;12.46;100.00;99513.69;5333985;27;20201;-73
2023/10/26 10:17:21;;;;;;;24.35;19.45;;;;;;;12.27;100.00;99510.50;5337296;27;20380;-72
2023/10/26 10:20:26;;;;;;;21.63;18.55;;;;;;;12.62;100.00;99509.13;5334475;27;20043;-73
2023/10/26 10:23:00;;;;;;;20.42;18.20;;;;;;;12.28;100.00;99511.34;5336004;27;20413;-73
2023/10/26 10:25:49;;;;;;;20.17;18.08;;;;;;;12.52;100.00;99497.22;5335598;27;20369;-72
2023/10/26 10:28:22;;;;;;;19.88;16.90;;;;;;;12.26;100.00;99498.38;5333401;27;20038;-73
2023/10/26 10:31:00;;;;;;;19.60;17.10;;;;;;;12.26;100.00;99487.88;5334591;27;20722;-73
2023/10/26 10:33:32;;;;;;;20.27;17.35;;;;;;;12.27;100.00;99488.69;5337549;27;20316;-74
2023/10/26 10:36:06;;;;;;;19.27;17.33;;;;;;;12.31;100.00;99490.81;5334732;27;20384;-73
2023/10/26 10:38:38;;;;;;;20.83;18.58;;;;;;;12.34;100.00;99495.69;5332151;27;20027;-73
2023/10/26 10:41:12;;;;;;;19.25;17.23;;;;;;;12.28;100.00;99499.03;5328630;27;20015;-73
2023/10/26 10:43:46;;;;;;;20.67;18.50;;;;;;;12.34;100.00;99487.81;5337044;27;20035;-72
2023/10/26 10:46:25;;;;;;;19.55;17.45;;;;;;;12.44;100.00;99490.22;5335783;27;20045;-73
2023/10/26 10:49:08;;;;;;;18.52;16.13;;;;;;;12.57;100.00;99485.19;5337992;27;20054;-73
2023/10/26 10:51:41;;;;;;;19.65;17.17;;;;;;;12.46;100.00;99484.78;5333693;27;20047;-73
2023/10/26 10:54:20;;;;;;;19.02;17.02;;;;;;;12.51;100.00;99471.97;5335358;27;20027;-73
2023/10/26 10:56:52;;;;;;;18.80;15.55;;;;;;;12.57;100.00;99471.22;5337559;27;20038;-73
2023/10/26 10:59:29;;;;;;;17.90;16.00;;;;;;;12.76;100.00;99462.84;5337485;27;20487;-73
2023/10/26 11:02:09;;;;;;;17.88;15.75;;;;;;;12.89;100.00;99468.34;5337268;27;20031;-73
2023/10/26 11:04:58;;;;;;;18.70;16.80;;;;;;;13.04;100.00;99467.53;5337019;27;20035;-72
2023/10/26 11:07:30;;;;;;;16.77;15.07;;;;;;;12.88;100.00;99461.44;5331580;27;20042;-73
2023/10/26 11:10:03;;;;;;;17.45;15.60;;;;;;;12.83;100.00;99478.72;5327675;27;20039;-73
2023/10/26 11:12:34;;;;;;;15.85;14.18;;;;;;;12.83;100.00;99469.03;5334886;27;20042;-73
2023/10/26 11:15:07;;;;;;;16.88;15.15;;;;;;;12.87;100.00;99475.56;5332582;27;20035;-73
2023/10/26 11:17:39;;;;;;;16.80;15.10;;;;;;;12.94;100.00;99475.69;5332091;27;20038;-73
2023/10/26 11:20:34;;;;;;;17.77;15.98;;;;;;;13.25;100.00;99469.47;5332518;27;20388;-72
2023/10/26 11:23:08;;;;;;;17.77;14.75;;;;;;;12.99;100.00;99462.00;5336071;27;20038;-73
2023/10/26 11:25:39;;;;;;;;;;;;;;;13.80;100.00;99458.47;5336314;27;20415;-72
2023/10/26 11:28:11;;;;;;;16.42;14.73;;;;;;;13.28;100.00;99456.78;5336581;27;20112;-72
2023/10/26 11:30:47;;;;;;;17.10;15.30;;;;;;;13.51;100.00;99454.06;5335141;27;20028;-72
2023/10/26 11:33:42;;;;;;;15.65;14.07;;;;;;;13.76;100.00;99451.13;5336742;27;20559;-72
2023/10/26 11:36:14;;;;;;;15.63;14.02;;;;;;;13.48;100.00;99451.78;5325155;27;20023;-72